createdAt,value
2022-12-08T00:01:50.610Z,91.40
2022-12-08T00:04:22.685Z,91.40
2022-12-08T00:07:11.017Z,91.20
2022-12-08T00:09:43.982Z,91.10
2022-12-08T00:12:17.648Z,91.10
2022-12-08T00:14:50.957Z,91.00
2022-12-08T00:17:22.097Z,91.10
2022-12-08T00:19:52.894Z,91.00
2022-12-08T00:22:23.720Z,90.90
2022-12-08T00:24:54.562Z,90.70
2022-12-08T00:27:27.712Z,90.80
2022-12-08T00:29:58.726Z,90.70
2022-12-08T00:32:29.414Z,90.70
2022-12-08T00:35:00.608Z,90.60
2022-12-08T00:37:31.901Z,90.60
2022-12-08T00:40:03.022Z,90.40
2022-12-08T00:42:33.896Z,90.60
2022-12-08T00:45:04.529Z,90.00
2022-12-08T00:47:36.208Z,90.10
2022-12-08T00:50:09.900Z,90.10
2022-12-08T00:52:40.660Z,90.00
2022-12-08T00:55:11.799Z,89.80
2022-12-08T00:57:42.473Z,89.60
2022-12-08T01:00:32.152Z,89.50
2022-12-08T01:03:02.858Z,89.60
2022-12-08T01:05:33.636Z,89.20
2022-12-08T01:08:04.353Z,88.90
2022-12-08T01:10:36.762Z,88.90
2022-12-08T01:13:09.411Z,88.60
2022-12-08T01:15:42.516Z,88.40
2022-12-08T01:18:12.665Z,88.00
2022-12-08T01:20:43.685Z,88.20
2022-12-08T01:23:14.925Z,88.00
2022-12-08T01:25:47.023Z,88.00
2022-12-08T01:28:17.723Z,87.50
2022-12-08T01:30:49.387Z,87.30
2022-12-08T01:33:20.029Z,87.20
2022-12-08T01:35:54.973Z,86.70
2022-12-08T01:38:27.696Z,86.80
2022-12-08T01:40:58.460Z,87.10
2022-12-08T01:43:30.424Z,86.60
2022-12-08T01:46:01.227Z,86.70
2022-12-08T01:48:32.104Z,87.00
2022-12-08T01:51:02.755Z,87.00
2022-12-08T01:53:35.317Z,86.90
2022-12-08T01:56:08.536Z,86.70
2022-12-08T01:58:45.139Z,86.50
2022-12-08T02:01:16.472Z,86.20
2022-12-08T02:04:06.647Z,85.90
2022-12-08T02:06:39.910Z,86.00
2022-12-08T02:09:11.035Z,85.90
2022-12-08T02:11:41.771Z,85.80
2022-12-08T02:14:16.242Z,85.80
2022-12-08T02:16:58.122Z,85.60
2022-12-08T02:19:53.325Z,85.30
2022-12-08T02:22:32.497Z,85.50
2022-12-08T02:25:11.249Z,85.00
2022-12-08T02:27:47.226Z,85.00
2022-12-08T02:30:44.586Z,85.00
2022-12-08T02:33:23.504Z,85.10
2022-12-08T02:36:19.252Z,85.10
2022-12-08T02:39:12.421Z,84.90
2022-12-08T02:41:49.249Z,84.20
2022-12-08T02:44:30.130Z,84.30
2022-12-08T02:47:04.624Z,84.30
2022-12-08T02:49:39.611Z,83.50
2022-12-08T02:52:20.085Z,83.00
2022-12-08T02:54:59.414Z,82.90
2022-12-08T02:57:56.924Z,82.00
2022-12-08T03:00:30.124Z,81.60
2022-12-08T03:03:18.630Z,81.40
2022-12-08T03:05:57.745Z,81.50
2022-12-08T03:08:51.801Z,81.50
2022-12-08T03:11:37.045Z,81.50
2022-12-08T03:14:11.024Z,81.10
2022-12-08T03:16:43.591Z,80.80
2022-12-08T03:19:25.651Z,80.50
2022-12-08T03:22:03.087Z,79.90
2022-12-08T03:24:42.082Z,80.10
2022-12-08T03:27:24.230Z,80.20
2022-12-08T03:29:58.120Z,80.10
2022-12-08T03:32:52.565Z,80.00
2022-12-08T03:35:36.249Z,80.20
2022-12-08T03:38:16.187Z,79.70
2022-12-08T03:40:48.956Z,79.20
2022-12-08T03:43:19.910Z,79.20
2022-12-08T03:45:50.914Z,79.00
2022-12-08T03:48:21.673Z,78.40
2022-12-08T03:50:57.914Z,78.20
2022-12-08T03:53:28.941Z,78.20
2022-12-08T03:55:59.615Z,77.50
2022-12-08T03:58:37.276Z,77.60
2022-12-08T04:01:04.291Z,77.00
2022-12-08T04:03:37.997Z,76.40
2022-12-08T04:06:09.599Z,76.20
2022-12-08T04:08:41.057Z,76.30
2022-12-08T04:11:12.501Z,75.80
2022-12-08T04:13:44.341Z,75.60
2022-12-08T04:16:27.065Z,75.60
2022-12-08T04:18:58.067Z,76.10
2022-12-08T04:21:28.824Z,74.50
2022-12-08T04:24:03.004Z,74.60
2022-12-08T04:26:33.059Z,73.80
2022-12-08T04:29:05.819Z,73.40
2022-12-08T04:31:42.416Z,73.20
2022-12-08T04:34:12.028Z,73.30
2022-12-08T04:36:42.660Z,73.30
2022-12-08T04:39:15.915Z,72.60
2022-12-08T04:41:46.899Z,72.40
2022-12-08T04:44:25.933Z,73.80
2022-12-08T04:46:56.849Z,72.20
2022-12-08T04:49:32.615Z,72.40
2022-12-08T04:52:03.582Z,71.80
2022-12-08T04:54:34.455Z,70.70
2022-12-08T04:57:05.459Z,69.60
2022-12-08T04:59:36.461Z,69.50
2022-12-08T05:02:09.232Z,69.80
2022-12-08T05:04:41.127Z,69.10
2022-12-08T05:07:11.797Z,69.20
2022-12-08T05:09:42.465Z,68.20
2022-12-08T05:12:13.267Z,68.60
2022-12-08T05:14:44.612Z,67.60
2022-12-08T05:17:15.469Z,67.20
2022-12-08T05:19:47.759Z,67.40
2022-12-08T05:22:19.241Z,66.20
2022-12-08T05:24:50.127Z,65.80
2022-12-08T05:27:20.882Z,66.50
2022-12-08T05:29:52.527Z,66.10
2022-12-08T05:32:23.215Z,65.80
2022-12-08T05:34:53.833Z,65.10
2022-12-08T05:37:24.682Z,65.20
2022-12-08T05:39:55.344Z,65.70
2022-12-08T05:42:26.571Z,65.50
2022-12-08T05:44:57.386Z,65.10
2022-12-08T05:47:31.875Z,66.20
2022-12-08T05:50:00.940Z,65.90
2022-12-08T05:52:31.834Z,66.40
2022-12-08T05:55:02.499Z,65.70
2022-12-08T05:57:33.476Z,65.00
2022-12-08T06:00:04.592Z,64.90
2022-12-08T06:02:36.740Z,66.30
2022-12-08T06:05:08.089Z,64.80
2022-12-08T06:07:38.962Z,64.80
2022-12-08T06:10:10.644Z,65.30
2022-12-08T06:12:48.823Z,65.00
2022-12-08T06:15:19.697Z,65.40
2022-12-08T06:17:50.341Z,64.80
2022-12-08T06:20:21.438Z,65.00
2022-12-08T06:22:52.197Z,64.30
2022-12-08T06:25:23.173Z,63.30
2022-12-08T06:27:54.532Z,63.90
2022-12-08T06:30:26.531Z,63.70
2022-12-08T06:32:58.834Z,64.10
2022-12-08T06:35:29.481Z,63.70
2022-12-08T06:38:02.140Z,63.70
2022-12-08T06:40:32.263Z,62.80
2022-12-08T06:43:03.271Z,62.30
2022-12-08T06:45:34.047Z,62.70
2022-12-08T06:48:07.223Z,62.60
2022-12-08T06:50:38.123Z,62.70
2022-12-08T06:53:10.346Z,63.20
2022-12-08T06:55:58.882Z,62.70
2022-12-08T06:58:14.756Z,62.50
2022-12-08T07:00:45.696Z,62.60
2022-12-08T07:03:18.028Z,62.60
2022-12-08T07:05:48.837Z,62.20
2022-12-08T07:08:20.120Z,62.70
2022-12-08T07:10:51.342Z,62.50
2022-12-08T07:13:22.149Z,62.80
2022-12-08T07:15:53.099Z,62.50
2022-12-08T07:18:23.969Z,63.20
2022-12-08T07:20:55.958Z,62.60
2022-12-08T07:23:26.678Z,63.70
2022-12-08T07:25:57.304Z,62.70
2022-12-08T07:28:28.862Z,63.20
2022-12-08T07:30:59.727Z,62.40
2022-12-08T07:33:30.758Z,62.70
2022-12-08T07:36:17.190Z,62.60
2022-12-08T07:38:47.852Z,62.60
2022-12-08T07:41:27.104Z,63.40
2022-12-08T07:44:03.666Z,63.60
2022-12-08T07:46:50.415Z,63.10
2022-12-08T07:52:07.403Z,64.00
2022-12-08T07:54:40.634Z,63.70
2022-12-08T07:57:11.861Z,63.70
2022-12-08T07:59:43.547Z,64.00
2022-12-08T08:02:24.637Z,64.10
2022-12-08T08:04:54.449Z,64.10
2022-12-08T08:07:36.893Z,63.50
2022-12-08T08:10:11.458Z,63.60
2022-12-08T08:12:47.000Z,64.30
2022-12-08T08:15:20.716Z,64.50
2022-12-08T08:17:58.181Z,64.80
2022-12-08T08:20:31.964Z,64.10
2022-12-08T08:23:03.086Z,64.50
2022-12-08T08:25:36.536Z,65.10
2022-12-08T08:33:51.407Z,64.80
2022-12-08T08:36:23.459Z,65.30
2022-12-08T08:38:55.729Z,65.50
2022-12-08T08:41:30.475Z,65.20
2022-12-08T08:44:00.378Z,65.50
2022-12-08T08:46:31.464Z,65.60
2022-12-08T08:49:02.698Z,65.90
2022-12-08T08:51:33.341Z,65.70
2022-12-08T08:54:04.777Z,65.80
2022-12-08T08:56:35.633Z,65.90
2022-12-08T08:59:06.613Z,66.10
2022-12-08T09:01:37.474Z,66.50
2022-12-08T09:04:08.351Z,66.30
2022-12-08T09:06:39.363Z,66.70
2022-12-08T09:09:10.421Z,66.00
2022-12-08T09:11:41.860Z,66.00
2022-12-08T09:14:16.288Z,66.20
2022-12-08T09:16:47.020Z,66.50
2022-12-08T09:19:17.867Z,66.50
2022-12-08T09:21:48.978Z,66.40
2022-12-08T09:24:19.663Z,66.50
2022-12-08T09:26:50.955Z,66.70
2022-12-08T09:29:32.496Z,66.40
2022-12-08T09:32:03.722Z,66.70
2022-12-08T09:34:36.186Z,67.00
2022-12-08T09:37:07.704Z,67.30
2022-12-08T09:39:39.442Z,67.30
2022-12-08T09:42:11.863Z,67.50
2022-12-08T09:44:48.014Z,67.40
2022-12-08T09:47:35.572Z,67.30
2022-12-08T09:50:13.214Z,67.60
2022-12-08T09:52:49.647Z,67.60
2022-12-08T09:55:30.297Z,67.80
2022-12-08T09:58:12.142Z,68.30
2022-12-08T10:00:43.930Z,68.60
2022-12-08T10:03:37.810Z,68.90
2022-12-08T10:06:53.025Z,69.00
2022-12-08T10:09:46.053Z,68.90
2022-12-08T10:12:34.071Z,69.20
2022-12-08T10:15:09.383Z,69.50
2022-12-08T10:17:47.294Z,69.60
2022-12-08T10:20:27.822Z,69.90
2022-12-08T10:23:20.376Z,70.10
2022-12-08T10:25:53.529Z,70.20
2022-12-08T10:28:26.229Z,70.50
2022-12-08T10:31:02.049Z,70.70
2022-12-08T10:33:35.269Z,70.90
2022-12-08T10:36:07.610Z,71.90
2022-12-08T10:38:41.053Z,71.20
2022-12-08T10:41:18.673Z,71.10
2022-12-08T10:43:57.624Z,71.40
2022-12-08T10:46:30.191Z,71.40
2022-12-08T10:49:14.890Z,71.50
2022-12-08T10:51:46.682Z,71.80
2022-12-08T10:54:40.295Z,71.80
2022-12-08T10:57:13.829Z,71.90
2022-12-08T10:59:46.230Z,72.00
2022-12-08T11:02:22.100Z,72.20
2022-12-08T11:04:55.386Z,72.10
2022-12-08T11:07:30.373Z,72.50
2022-12-08T11:10:02.378Z,72.50
2022-12-08T11:12:37.769Z,72.70
2022-12-08T11:15:09.291Z,72.70
2022-12-08T11:17:41.148Z,72.70
2022-12-08T11:20:19.671Z,72.80
2022-12-08T11:22:54.926Z,72.80
2022-12-08T11:25:31.747Z,72.90
2022-12-08T11:28:07.057Z,73.00
2022-12-08T11:30:48.008Z,73.00
2022-12-08T11:33:20.856Z,73.10
2022-12-08T11:35:58.384Z,73.20
2022-12-08T11:38:31.980Z,73.30
2022-12-08T11:41:07.525Z,73.50
2022-12-08T11:43:52.834Z,73.80
2022-12-08T11:46:28.393Z,73.90
2022-12-08T11:49:06.910Z,74.20
2022-12-08T11:51:42.492Z,74.10
2022-12-08T11:54:27.306Z,74.30
2022-12-08T11:57:04.604Z,74.60
2022-12-08T11:59:40.707Z,74.60
2022-12-08T12:02:24.187Z,74.90
2022-12-08T12:05:03.438Z,74.90
2022-12-08T12:07:49.674Z,76.10
2022-12-08T12:10:48.281Z,75.20
2022-12-08T12:13:33.525Z,75.30
2022-12-08T12:16:12.635Z,75.20
2022-12-08T12:18:51.088Z,75.40
2022-12-08T12:21:38.945Z,75.50
2022-12-08T12:24:36.069Z,75.50
2022-12-08T12:27:23.671Z,75.50
2022-12-08T12:29:56.540Z,76.90
2022-12-08T12:32:30.254Z,75.90
2022-12-08T12:35:07.031Z,76.10
2022-12-08T12:37:43.370Z,76.10
2022-12-08T12:40:26.167Z,76.20
2022-12-08T12:43:05.301Z,76.40
2022-12-08T12:45:39.699Z,76.70
2022-12-08T12:48:13.122Z,76.60
2022-12-08T12:50:49.203Z,76.60
2022-12-08T12:53:23.136Z,77.10
2022-12-08T12:56:03.164Z,77.30
2022-12-08T12:58:39.773Z,77.60
2022-12-08T13:01:13.896Z,77.70
2022-12-08T13:03:50.528Z,77.20
2022-12-08T13:06:27.726Z,77.90
2022-12-08T13:08:59.648Z,77.50
2022-12-08T13:11:31.538Z,78.10
2022-12-08T13:14:07.998Z,78.40
2022-12-08T13:16:41.153Z,78.50
2022-12-08T13:19:20.532Z,78.10
2022-12-08T13:21:51.472Z,78.30
2022-12-08T13:24:30.927Z,79.50
2022-12-08T13:27:11.172Z,78.70
2022-12-08T13:29:43.959Z,78.40
2022-12-08T13:32:17.372Z,78.80
2022-12-08T13:34:54.326Z,78.90
2022-12-08T13:37:48.118Z,78.90
2022-12-08T13:40:17.255Z,79.10
2022-12-08T13:42:59.321Z,79.30
2022-12-08T13:46:31.873Z,79.60
2022-12-08T13:48:42.603Z,79.60
2022-12-08T13:59:30.808Z,80.40
2022-12-08T14:02:24.999Z,80.60
2022-12-08T14:07:30.481Z,80.60
2022-12-08T14:10:08.503Z,80.80
2022-12-08T14:12:54.764Z,81.00
2022-12-08T14:15:34.167Z,81.20
2022-12-08T14:18:04.392Z,81.30
2022-12-08T14:20:57.728Z,81.30
2022-12-08T14:23:28.117Z,81.60
2022-12-08T14:25:45.589Z,81.70
2022-12-08T14:28:21.734Z,81.40
2022-12-08T14:30:52.613Z,81.90
2022-12-08T14:33:27.264Z,82.30
2022-12-08T14:35:59.095Z,82.00
2022-12-08T14:38:32.419Z,82.10
2022-12-08T14:41:07.323Z,82.10
2022-12-08T14:43:38.431Z,82.10
2022-12-08T14:46:26.166Z,82.30
2022-12-08T14:49:01.707Z,82.20
2022-12-08T14:51:48.796Z,82.90
2022-12-08T14:54:21.959Z,82.60
2022-12-08T14:57:01.512Z,82.80
2022-12-08T14:59:37.409Z,82.60
2022-12-08T15:02:26.609Z,82.70
2022-12-08T15:05:16.047Z,83.20
2022-12-08T15:07:56.986Z,83.40
2022-12-08T15:10:40.882Z,83.40
2022-12-08T15:13:26.629Z,83.30
2022-12-08T15:16:01.835Z,83.80
2022-12-08T15:18:47.558Z,83.60
2022-12-08T15:21:18.722Z,84.80
2022-12-08T15:24:35.812Z,83.70
2022-12-08T15:27:07.813Z,83.90
2022-12-08T15:29:38.820Z,84.20
2022-12-08T15:32:13.348Z,84.50
2022-12-08T15:34:44.169Z,83.90
2022-12-08T15:37:30.823Z,84.50
2022-12-08T15:40:05.105Z,84.40
2022-12-08T15:42:55.555Z,84.40
2022-12-08T15:45:28.866Z,84.70
2022-12-08T15:47:59.822Z,84.70
2022-12-08T15:50:32.235Z,84.90
2022-12-08T15:53:03.435Z,85.30
2022-12-08T15:55:38.748Z,85.10
2022-12-08T16:00:55.930Z,85.70
2022-12-08T16:06:50.904Z,85.60
2022-12-08T16:09:00.536Z,85.70
2022-12-08T16:11:56.434Z,86.00
2022-12-08T16:14:03.236Z,86.00
2022-12-08T16:16:31.936Z,85.70
2022-12-08T16:19:02.778Z,85.90
2022-12-08T16:22:12.122Z,85.90
2022-12-08T16:24:09.267Z,86.00
2022-12-08T16:27:57.983Z,86.00
2022-12-08T16:29:12.377Z,85.90
2022-12-08T16:31:48.669Z,86.20
2022-12-08T16:34:19.392Z,85.70
2022-12-08T16:36:51.486Z,86.00
2022-12-08T16:42:43.689Z,86.30
2022-12-08T16:45:24.026Z,86.20
2022-12-08T16:47:58.734Z,86.20
2022-12-08T16:50:34.978Z,86.70
2022-12-08T16:53:08.447Z,86.90
2022-12-08T16:55:39.100Z,87.00
2022-12-08T16:58:28.808Z,86.60
2022-12-08T17:01:01.386Z,86.90
2022-12-08T17:03:32.422Z,87.10
2022-12-08T17:06:03.113Z,87.40
2022-12-08T17:08:35.244Z,87.50
2022-12-08T17:11:15.278Z,87.30
2022-12-08T17:13:46.011Z,87.50
2022-12-08T17:16:23.372Z,87.60
2022-12-08T17:18:58.236Z,87.70
2022-12-08T17:21:27.960Z,87.70
2022-12-08T17:23:58.744Z,87.70
2022-12-08T17:26:29.834Z,87.80
2022-12-08T17:29:02.181Z,87.90
2022-12-08T17:31:34.060Z,87.80
2022-12-08T17:34:06.400Z,88.30
2022-12-08T17:36:37.140Z,87.80
2022-12-08T17:39:13.466Z,88.10
2022-12-08T17:41:42.855Z,88.50
2022-12-08T17:44:21.469Z,88.60
2022-12-08T17:46:53.421Z,88.60
2022-12-08T17:49:26.964Z,88.80
2022-12-08T17:51:59.688Z,88.30
2022-12-08T17:54:31.496Z,88.80
2022-12-08T17:57:04.265Z,88.70
2022-12-08T17:59:35.380Z,88.50
2022-12-08T18:02:06.474Z,88.60
2022-12-08T18:04:37.154Z,88.70
2022-12-08T18:07:08.109Z,88.80
2022-12-08T18:09:39.265Z,89.00
2022-12-08T18:12:10.413Z,88.90
2022-12-08T18:14:41.197Z,88.90
2022-12-08T18:17:12.853Z,89.30
2022-12-08T18:19:43.727Z,89.00
2022-12-08T18:22:14.600Z,89.00
2022-12-08T18:24:45.929Z,89.00
2022-12-08T18:27:17.048Z,88.80
2022-12-08T18:29:48.154Z,89.40
2022-12-08T18:32:19.241Z,89.40
2022-12-08T18:34:50.183Z,89.50
2022-12-08T18:37:21.050Z,89.50
2022-12-08T18:39:52.135Z,89.70
2022-12-08T18:42:32.109Z,89.70
2022-12-08T18:45:10.325Z,89.50
2022-12-08T18:47:43.945Z,89.50
2022-12-08T18:50:15.217Z,89.30
2022-12-08T18:52:46.806Z,89.90
2022-12-08T18:55:18.313Z,89.60
2022-12-08T18:57:49.565Z,89.70
2022-12-08T19:00:21.968Z,89.50
2022-12-08T19:02:53.536Z,89.60
2022-12-08T19:05:24.246Z,89.50
2022-12-08T19:07:54.944Z,89.60
2022-12-08T19:10:26.468Z,89.60
2022-12-08T19:12:57.355Z,89.40
2022-12-08T19:15:29.739Z,89.60
2022-12-08T19:18:00.523Z,89.60
2022-12-08T19:20:31.491Z,89.50
2022-12-08T19:23:02.335Z,89.70
2022-12-08T19:25:33.134Z,89.50
2022-12-08T19:28:03.866Z,89.70
2022-12-08T19:30:37.065Z,89.50
2022-12-08T19:33:07.797Z,89.40
2022-12-08T19:35:39.404Z,90.10
2022-12-08T19:38:10.084Z,89.40
2022-12-08T19:40:59.312Z,89.60
2022-12-08T19:43:47.701Z,89.60
2022-12-08T19:46:18.494Z,89.80
2022-12-08T19:48:50.813Z,89.70
2022-12-08T19:51:21.457Z,90.00
2022-12-08T19:53:52.261Z,90.00
2022-12-08T19:56:23.251Z,89.90
2022-12-08T19:58:53.970Z,90.00
2022-12-08T20:01:24.948Z,89.90
2022-12-08T20:04:03.300Z,90.10
2022-12-08T20:06:34.414Z,90.10
2022-12-08T20:09:13.813Z,90.10
2022-12-08T20:11:48.487Z,90.00
2022-12-08T20:14:20.410Z,90.00
2022-12-08T20:16:51.552Z,90.00
2022-12-08T20:19:22.341Z,90.00
2022-12-08T20:21:53.227Z,90.10
2022-12-08T20:24:25.629Z,90.00
2022-12-08T20:26:56.458Z,90.00
2022-12-08T20:29:32.569Z,90.00
2022-12-08T20:32:03.551Z,89.90
2022-12-08T20:34:35.597Z,90.00
2022-12-08T20:37:06.547Z,90.00
2022-12-08T20:39:43.408Z,89.90
2022-12-08T20:42:15.814Z,89.90
2022-12-08T20:44:46.646Z,89.40
2022-12-08T20:47:17.633Z,90.00
2022-12-08T20:49:49.946Z,90.00
2022-12-08T20:52:22.517Z,90.00
2022-12-08T20:54:54.619Z,89.90
2022-12-08T20:57:25.733Z,90.00
2022-12-08T20:59:56.964Z,90.00
2022-12-08T21:02:29.846Z,90.00
2022-12-08T21:05:00.386Z,89.90
2022-12-08T21:07:31.409Z,90.00
2022-12-08T21:10:02.911Z,90.10
2022-12-08T21:12:34.690Z,90.00
2022-12-08T21:15:05.764Z,90.10
2022-12-08T21:17:37.177Z,90.10
2022-12-08T21:21:49.919Z,90.00
2022-12-08T21:22:49.721Z,90.00
2022-12-08T21:25:20.717Z,90.00
2022-12-08T21:27:51.393Z,90.10
2022-12-08T21:30:22.374Z,90.10
2022-12-08T21:32:53.165Z,90.10
2022-12-08T21:35:24.002Z,90.10
2022-12-08T21:37:54.975Z,90.10
2022-12-08T21:40:26.050Z,90.20
2022-12-08T21:42:59.002Z,90.10
2022-12-08T21:45:30.260Z,90.20
2022-12-08T21:48:04.543Z,90.30
2022-12-08T21:50:33.041Z,90.40
2022-12-08T21:53:04.571Z,90.20
2022-12-08T21:55:35.401Z,90.40
2022-12-08T21:58:06.686Z,90.20
2022-12-08T22:00:39.127Z,90.40
2022-12-08T22:03:11.454Z,90.30
2022-12-08T22:05:44.376Z,90.10
2022-12-08T22:08:15.340Z,90.30
2022-12-08T22:10:53.169Z,90.40
2022-12-08T22:13:23.953Z,90.90
2022-12-08T22:16:02.100Z,90.60
2022-12-08T22:18:33.277Z,90.60
2022-12-08T22:21:04.377Z,90.80
2022-12-08T22:23:35.826Z,91.30
2022-12-08T22:26:08.691Z,91.00
2022-12-08T22:28:42.469Z,91.10
2022-12-08T22:31:16.104Z,91.10
2022-12-08T22:33:48.259Z,91.10
2022-12-08T22:36:22.843Z,91.10
2022-12-08T22:38:56.476Z,91.00
2022-12-08T22:41:28.459Z,91.00
2022-12-08T22:43:59.835Z,91.10
2022-12-08T22:46:31.735Z,91.20
2022-12-08T22:49:04.646Z,91.30
2022-12-08T22:51:37.929Z,91.50
2022-12-08T22:54:09.481Z,91.50
2022-12-08T22:56:41.520Z,91.60
2022-12-08T22:59:12.221Z,91.50
2022-12-08T23:01:43.337Z,91.60
2022-12-08T23:04:18.009Z,91.50
2022-12-08T23:06:48.394Z,91.50
2022-12-08T23:09:19.145Z,91.60
2022-12-08T23:11:51.630Z,91.70
2022-12-08T23:14:22.649Z,91.60
2022-12-08T23:16:53.568Z,91.60
2022-12-08T23:19:24.407Z,91.70
2022-12-08T23:21:55.094Z,91.60
2022-12-08T23:24:25.981Z,91.80
2022-12-08T23:26:57.548Z,91.70
2022-12-08T23:29:28.351Z,91.60
2022-12-08T23:32:03.054Z,91.70
2022-12-08T23:34:34.045Z,91.70
2022-12-08T23:37:04.742Z,92.00
2022-12-08T23:39:35.631Z,92.10
2022-12-08T23:42:08.349Z,92.30
2022-12-08T23:44:38.562Z,92.40
2022-12-08T23:47:21.346Z,92.40
2022-12-08T23:50:05.962Z,92.50
2022-12-08T23:52:24.396Z,92.50
2022-12-08T23:55:15.988Z,92.60
2022-12-08T23:57:46.818Z,92.50
